Time;durP1;ratioP1;P1;durP2;ratioP2;P2;SDS_P1;SDS_P2;PMS_P1;PMS_P2;Temp;Humidity;BMP_temperature;BMP_pressure;BME280_temperature;BME280_humidity;BME280_pressure;Samples;Min_cycle;Max_cycle;Signal;HPM_P1;HPM_P2
2022/03/26 00:02:04;;;;;;;5.97;2.15;;;21.70;55.00;;;;;;4970945;28;20202;-68
2022/03/26 00:04:35;;;;;;;7.15;2.60;;;21.80;55.20;;;;;;4970484;28;20288;-65
2022/03/26 00:07:07;;;;;;;3.67;2.10;;;21.80;55.30;;;;;;4970425;28;20284;-62
2022/03/26 00:09:38;;;;;;;4.47;2.10;;;21.80;55.30;;;;;;4970856;28;20237;-69
2022/03/26 00:12:09;;;;;;;5.32;2.17;;;21.80;55.30;;;;;;4970935;28;20300;-69
2022/03/26 00:14:40;;;;;;;4.57;2.00;;;21.90;55.40;;;;;;4970255;28;20198;-68
2022/03/26 00:17:10;;;;;;;4.80;2.20;;;21.90;55.50;;;;;;4970834;28;20214;-69
2022/03/26 00:19:41;;;;;;;3.03;1.73;;;21.90;55.50;;;;;;4971106;28;20575;-69
2022/03/26 00:22:13;;;;;;;4.40;1.80;;;21.90;55.60;;;;;;4970989;28;20202;-69
2022/03/26 00:24:44;;;;;;;4.18;2.00;;;22.00;55.60;;;;;;4974589;28;20241;-69
2022/03/26 00:27:14;;;;;;;4.15;2.10;;;22.00;55.70;;;;;;4990026;28;20644;-65
2022/03/26 00:29:45;;;;;;;4.50;2.05;;;22.00;55.80;;;;;;4978962;28;20237;-63
2022/03/26 00:32:16;;;;;;;3.13;1.95;;;22.00;55.80;;;;;;4970826;28;20312;-69
2022/03/26 00:34:47;;;;;;;3.45;1.92;;;22.00;55.90;;;;;;4970944;28;20248;-65
2022/03/26 00:37:19;;;;;;;4.63;2.22;;;22.00;56.00;;;;;;4970984;28;20218;-69
2022/03/26 00:39:50;;;;;;;3.67;2.10;;;22.10;56.10;;;;;;4970596;28;20203;-65
2022/03/26 00:42:20;;;;;;;4.78;1.90;;;22.10;56.10;;;;;;4970504;28;20211;-67
2022/03/26 00:44:51;;;;;;;4.10;2.20;;;22.10;56.30;;;;;;4970149;28;20318;-69
2022/03/26 00:47:21;;;;;;;5.30;2.55;;;22.10;56.30;;;;;;4970249;28;20265;-69
2022/03/26 00:49:52;;;;;;;3.50;2.05;;;22.10;56.30;;;;;;4970589;28;20261;-65
2022/03/26 00:52:24;;;;;;;4.40;1.98;;;22.10;57.00;;;;;;4970575;28;20226;-69
2022/03/26 00:54:55;;;;;;;5.20;2.25;;;22.10;56.40;;;;;;4976783;28;20268;-69
2022/03/26 00:57:25;;;;;;;4.43;2.33;;;22.20;56.50;;;;;;4992941;28;20214;-66
2022/03/26 00:59:58;;;;;;;5.55;2.10;;;22.20;56.60;;;;;;4982406;28;20198;-68
2022/03/26 01:02:28;;;;;;;4.85;2.00;;;22.20;56.40;;;;;;4973769;28;20210;-66
2022/03/26 01:04:59;;;;;;;4.13;1.92;;;22.20;56.40;;;;;;4974045;28;20253;-69
2022/03/26 01:07:31;;;;;;;4.20;2.00;;;22.30;56.40;;;;;;4973834;28;20222;-69
2022/03/26 01:10:02;;;;;;;6.50;2.25;;;22.30;56.40;;;;;;4973610;28;20198;-67
2022/03/26 01:12:32;;;;;;;4.20;1.95;;;22.30;56.40;;;;;;4974123;28;20772;-65
2022/03/26 01:15:03;;;;;;;4.85;2.00;;;22.30;56.40;;;;;;4973434;28;20206;-69
2022/03/26 01:17:34;;;;;;;3.50;2.03;;;22.40;56.40;;;;;;4973584;28;20316;-69
2022/03/26 01:20:04;;;;;;;3.63;2.00;;;22.40;56.40;;;;;;4973299;28;20190;-66
2022/03/26 01:22:37;;;;;;;5.07;2.00;;;22.40;56.40;;;;;;4974048;28;20257;-69
2022/03/26 01:25:08;;;;;;;2.88;2.00;;;22.40;56.30;;;;;;4980602;28;20244;-69
2022/03/26 01:27:38;;;;;;;3.67;2.20;;;22.50;56.90;;;;;;4992813;28;20284;-69
2022/03/26 01:30:10;;;;;;;2.10;1.40;;;22.50;56.30;;;;;;4981445;28;20226;-67
2022/03/26 01:32:40;;;;;;;3.47;2.00;;;22.50;56.30;;;;;;4986222;23;20226;-63
2022/03/26 01:35:11;;;;;;;3.95;2.08;;;22.50;56.30;;;;;;4954177;28;20195;-61
2022/03/26 01:37:44;;;;;;;4.78;2.10;;;22.60;56.40;;;;;;4963916;28;20218;-61
2022/03/26 01:40:15;;;;;;;3.63;1.70;;;22.60;56.40;;;;;;4991865;28;20194;-61
2022/03/26 01:42:46;;;;;;;4.03;1.88;;;22.60;56.40;;;;;;4992461;28;20205;-61
2022/03/26 01:45:17;;;;;;;3.75;1.85;;;22.60;56.40;;;;;;4991992;28;20260;-61
2022/03/26 01:47:47;;;;;;;2.78;1.67;;;22.70;56.20;;;;;;4992903;28;20268;-61
2022/03/26 01:50:18;;;;;;;2.95;1.70;;;22.70;56.10;;;;;;4992642;28;20270;-61
2022/03/26 01:52:50;;;;;;;2.45;1.52;;;22.70;55.90;;;;;;4992744;28;20264;-61
2022/03/26 01:55:21;;;;;;;2.53;1.70;;;22.70;56.00;;;;;;4983502;28;20342;-61
2022/03/26 01:57:53;;;;;;;3.67;1.80;;;22.80;56.00;;;;;;4972965;28;20497;-61
2022/03/26 02:00:24;;;;;;;2.67;1.70;;;22.80;56.00;;;;;;4983269;28;20194;-61
2022/03/26 02:02:54;;;;;;;2.67;1.70;;;22.80;56.00;;;;;;4992690;28;20198;-61
2022/03/26 02:05:25;;;;;;;4.00;1.95;;;22.80;56.00;;;;;;4992445;28;20198;-61
2022/03/26 02:07:57;;;;;;;3.42;1.92;;;22.90;55.90;;;;;;4992198;28;20225;-61
2022/03/26 02:10:28;;;;;;;5.07;1.92;;;22.90;55.80;;;;;;4992101;28;20197;-61
2022/03/26 02:12:59;;;;;;;4.50;1.52;;;22.90;55.80;;;;;;4991837;28;20252;-61
2022/03/26 02:15:30;;;;;;;2.55;1.50;;;23.00;55.70;;;;;;4991552;28;20287;-61
2022/03/26 02:18:00;;;;;;;4.15;1.83;;;23.00;55.60;;;;;;4992096;28;20228;-61
2022/03/26 02:20:33;;;;;;;3.25;1.58;;;23.00;55.50;;;;;;4992138;28;20256;-61
2022/03/26 02:23:03;;;;;;;3.67;2.13;;;23.10;55.40;;;;;;4978481;28;20272;-61
2022/03/26 02:25:34;;;;;;;3.50;1.58;;;23.10;55.40;;;;;;4973726;28;20210;-61
2022/03/26 02:28:04;;;;;;;3.17;1.67;;;23.10;55.30;;;;;;4979222;28;20221;-61
2022/03/26 02:30:35;;;;;;;2.17;1.55;;;23.10;55.20;;;;;;4991223;28;20202;-61
2022/03/26 03:07:03;;;;;;;2.90;1.50;;;23.50;54.60;;;;;;5168109;23;20703;-57
2022/03/26 03:09:34;;;;;;;3.17;1.80;;;23.60;54.50;;;;;;5010207;28;20217;-57
2022/03/26 03:12:05;;;;;;;2.50;1.38;;;23.60;54.20;;;;;;5008263;28;20594;-57
2022/03/26 03:14:35;;;;;;;2.95;1.60;;;23.70;54.10;;;;;;5009729;28;20201;-57
2022/03/26 03:17:06;;;;;;;2.92;1.45;;;23.70;54.20;;;;;;5008334;28;20279;-56
2022/03/26 03:19:36;;;;;;;2.65;1.63;;;23.70;54.20;;;;;;5010580;28;20228;-57
2022/03/26 03:22:09;;;;;;;1.55;1.23;;;23.80;54.10;;;;;;5010439;28;20197;-57
2022/03/26 03:24:39;;;;;;;1.95;1.60;;;23.80;54.00;;;;;;5013653;28;20668;-57
2022/03/26 03:27:10;;;;;;;2.55;1.45;;;23.80;53.90;;;;;;5012460;28;20764;-57
2022/03/26 03:29:41;;;;;;;2.58;1.60;;;23.90;54.00;;;;;;5010447;28;20295;-58
2022/03/26 03:32:14;;;;;;;3.92;1.75;;;23.90;53.80;;;;;;5022550;23;20306;-56
2022/03/26 03:34:47;;;;;;;3.13;1.50;;;23.90;53.60;;;;;;4990093;28;20208;-55
2022/03/26 03:37:20;;;;;;;10.00;1.92;;;23.90;53.40;;;;;;4984333;28;20573;-54
2022/03/26 03:39:50;;;;;;;7.15;2.00;;;24.00;53.20;;;;;;4967121;28;20277;-58
2022/03/26 03:42:21;;;;;;;8.82;2.10;;;24.00;53.10;;;;;;4969125;28;20277;-57
2022/03/26 03:44:51;;;;;;;3.75;1.65;;;24.00;53.10;;;;;;4969105;28;20755;-53
2022/03/26 03:47:22;;;;;;;4.50;2.08;;;24.10;53.20;;;;;;4970092;28;20209;-54
2022/03/26 03:49:53;;;;;;;8.52;1.83;;;24.10;53.30;;;;;;4969765;28;20225;-61
2022/03/26 03:52:26;;;;;;;5.82;1.98;;;24.20;53.40;;;;;;4967896;28;20252;-62
2022/03/26 03:54:56;;;;;;;4.80;1.60;;;24.20;53.40;;;;;;4968592;28;20280;-60
2022/03/26 03:57:27;;;;;;;4.20;1.40;;;24.20;53.50;;;;;;4969092;28;20268;-61
2022/03/26 03:59:57;;;;;;;5.15;1.65;;;24.30;53.50;;;;;;4969406;28;20202;-60
2022/03/26 04:02:29;;;;;;;5.70;2.10;;;24.30;53.40;;;;;;4969237;28;20197;-57
2022/03/26 04:04:59;;;;;;;4.80;1.70;;;24.30;53.30;;;;;;4968236;28;20200;-54
2022/03/26 04:07:32;;;;;;;4.78;1.48;;;24.40;53.30;;;;;;4967797;28;20301;-54
2022/03/26 04:10:02;;;;;;;3.40;1.67;;;24.40;53.30;;;;;;4967921;28;20292;-56
2022/03/26 04:12:33;;;;;;;3.20;1.60;;;24.40;53.30;;;;;;4967893;28;20226;-62
2022/03/26 04:15:04;;;;;;;2.85;1.55;;;24.50;53.40;;;;;;4968180;28;20320;-55
2022/03/26 04:17:34;;;;;;;5.57;1.80;;;24.50;53.40;;;;;;4967470;28;20280;-59
2022/03/26 04:20:06;;;;;;;4.15;1.40;;;24.50;53.40;;;;;;4968808;28;20282;-56
2022/03/26 04:22:39;;;;;;;4.93;1.67;;;24.50;53.30;;;;;;4968180;28;20253;-60
2022/03/26 04:25:10;;;;;;;4.15;1.80;;;24.50;53.30;;;;;;4969367;28;20281;-59
2022/03/26 04:27:46;;;;;;;3.03;1.60;;;24.60;53.30;;;;;;4969092;28;20269;-60
2022/03/26 04:30:17;;;;;;;4.93;1.77;;;24.60;53.20;;;;;;4970041;28;20237;-60
2022/03/26 04:32:47;;;;;;;7.38;1.77;;;24.70;53.20;;;;;;4972446;28;20709;-60
2022/03/26 04:35:18;;;;;;;3.40;1.38;;;24.60;53.10;;;;;;4973342;28;20199;-60
2022/03/26 04:37:52;;;;;;;4.20;1.45;;;24.70;53.20;;;;;;4972752;28;20214;-59
2022/03/26 04:40:22;;;;;;;4.82;1.60;;;24.70;53.10;;;;;;4972019;28;20198;-60
2022/03/26 04:42:53;;;;;;;2.20;1.30;;;24.70;53.00;;;;;;4971927;28;20202;-60
2022/03/26 04:45:24;;;;;;;3.05;1.58;;;24.80;52.90;;;;;;4972458;28;20261;-59
2022/03/26 04:47:54;;;;;;;5.53;1.60;;;24.80;52.90;;;;;;4971846;28;20220;-58
2022/03/26 04:50:25;;;;;;;4.32;1.50;;;24.80;52.90;;;;;;4972622;28;20199;-61
2022/03/26 04:52:57;;;;;;;2.83;1.90;;;24.90;52.90;;;;;;4972470;28;20285;-59
2022/03/26 04:55:28;;;;;;;4.88;1.70;;;24.80;52.80;;;;;;4972441;28;20237;-62
2022/03/26 04:57:58;;;;;;;2.65;1.60;;;24.90;53.00;;;;;;4972573;28;20273;-61
2022/03/26 05:00:29;;;;;;;3.03;1.50;;;24.90;53.10;;;;;;4971839;28;20194;-60
2022/03/26 05:02:59;;;;;;;4.30;1.75;;;24.90;52.90;;;;;;4972621;28;20277;-60
2022/03/26 05:05:30;;;;;;;3.63;1.80;;;25.00;52.70;;;;;;4972468;28;20198;-59
2022/03/26 05:08:03;;;;;;;4.00;1.60;;;25.00;52.60;;;;;;4971798;28;20210;-55
2022/03/26 05:10:33;;;;;;;3.80;1.63;;;25.00;52.50;;;;;;4972129;28;20347;-58
2022/03/26 05:13:04;;;;;;;3.17;1.55;;;25.00;52.40;;;;;;4971696;28;20222;-60
2022/03/26 05:15:34;;;;;;;5.03;2.10;;;25.00;52.40;;;;;;4971882;28;20198;-58
2022/03/26 05:18:05;;;;;;;3.67;1.58;;;25.00;52.30;;;;;;4971441;28;20273;-54
2022/03/26 05:20:35;;;;;;;3.90;1.40;;;25.00;52.20;;;;;;4971968;28;20249;-61
2022/03/26 05:23:08;;;;;;;2.90;1.65;;;25.00;52.20;;;;;;4971616;28;20194;-61
2022/03/26 05:25:39;;;;;;;3.08;1.48;;;25.00;52.30;;;;;;4972855;28;20233;-59
2022/03/26 05:28:10;;;;;;;5.13;1.98;;;25.00;52.30;;;;;;4971826;28;20222;-61
2022/03/26 05:30:44;;;;;;;6.13;1.80;;;25.00;52.10;;;;;;4971538;28;20206;-56
2022/03/26 05:33:14;;;;;;;3.53;1.90;;;25.00;52.20;;;;;;4971952;28;20234;-57
2022/03/26 05:35:45;;;;;;;3.60;1.65;;;25.00;52.20;;;;;;4971238;28;20257;-58
2022/03/26 05:38:17;;;;;;;4.45;1.60;;;25.00;52.00;;;;;;4972127;28;20262;-56
2022/03/26 05:40:49;;;;;;;3.90;1.85;;;25.00;52.00;;;;;;4971161;28;20198;-57
2022/03/26 05:43:19;;;;;;;5.53;1.77;;;25.00;52.10;;;;;;4972149;28;20703;-61
2022/03/26 05:45:58;;;;;;;3.65;2.17;;;25.00;52.20;;;;;;4971157;28;20278;-60
2022/03/26 05:48:28;;;;;;;4.38;1.70;;;25.00;52.20;;;;;;4971672;28;20221;-58
2022/03/26 05:50:59;;;;;;;2.58;1.40;;;25.00;52.10;;;;;;4970982;28;20232;-55
2022/03/26 05:53:31;;;;;;;3.78;1.55;;;25.00;52.20;;;;;;4971539;28;20276;-60
2022/03/26 05:56:03;;;;;;;4.15;1.80;;;25.00;52.20;;;;;;4971451;28;20194;-55
2022/03/26 05:58:34;;;;;;;2.70;1.95;;;25.00;52.20;;;;;;4971156;28;20617;-53
2022/03/26 06:01:05;;;;;;;3.70;1.83;;;25.00;52.30;;;;;;4970848;28;20190;-56
2022/03/26 06:03:35;;;;;;;3.92;1.85;;;24.90;52.30;;;;;;4970505;28;20729;-59
2022/03/26 06:06:06;;;;;;;4.00;1.67;;;24.90;52.30;;;;;;4971087;28;20241;-51
2022/03/26 06:08:38;;;;;;;3.03;1.63;;;24.90;52.30;;;;;;4970006;28;20249;-58
2022/03/26 06:11:12;;;;;;;2.95;1.60;;;24.90;52.20;;;;;;4971856;28;20269;-53
2022/03/26 06:13:43;;;;;;;2.78;1.60;;;24.90;52.30;;;;;;4970154;28;20272;-58
2022/03/26 06:16:13;;;;;;;4.45;2.10;;;24.80;52.40;;;;;;4970839;28;20270;-58
2022/03/26 06:18:44;;;;;;;3.35;1.80;;;24.80;52.50;;;;;;4970739;28;20523;-59
2022/03/26 06:21:14;;;;;;;3.88;1.83;;;24.80;52.50;;;;;;4971207;28;20194;-53
2022/03/26 06:23:47;;;;;;;4.57;1.92;;;24.80;52.60;;;;;;4971381;28;20194;-56
2022/03/26 06:26:17;;;;;;;4.30;1.92;;;24.80;52.60;;;;;;4971139;28;20613;-56
2022/03/26 06:28:48;;;;;;;5.18;1.90;;;24.80;52.70;;;;;;4970483;28;20276;-51
2022/03/26 06:31:18;;;;;;;3.47;1.45;;;24.70;52.80;;;;;;4970042;28;20194;-58
2022/03/26 06:33:49;;;;;;;2.95;1.27;;;24.70;52.70;;;;;;4970799;28;20221;-55
2022/03/26 06:36:20;;;;;;;2.72;1.50;;;24.70;52.70;;;;;;4970333;28;20257;-53
2022/03/26 06:38:52;;;;;;;4.00;1.80;;;24.70;52.60;;;;;;4970664;28;20225;-51
2022/03/26 06:41:23;;;;;;;2.53;1.60;;;24.70;52.60;;;;;;4969767;28;20249;-53
2022/03/26 06:43:54;;;;;;;2.67;1.48;;;24.60;52.60;;;;;;4970682;28;20198;-58
2022/03/26 06:46:24;;;;;;;2.13;1.40;;;24.60;52.60;;;;;;4970647;28;20211;-56
2022/03/26 06:48:55;;;;;;;3.05;1.88;;;24.60;52.70;;;;;;4972152;28;20281;-55
2022/03/26 06:51:25;;;;;;;3.15;1.52;;;24.60;52.70;;;;;;4972253;28;20260;-57
2022/03/26 06:53:58;;;;;;;2.97;1.58;;;24.50;52.70;;;;;;4971576;28;20710;-55
2022/03/26 06:56:28;;;;;;;2.38;1.52;;;24.50;52.70;;;;;;4989228;28;20237;-54
2022/03/26 06:58:59;;;;;;;4.30;1.77;;;24.50;52.70;;;;;;4989811;28;20205;-52
2022/03/26 07:01:29;;;;;;;2.97;1.42;;;24.40;52.60;;;;;;4989429;28;20198;-58
2022/03/26 07:04:00;;;;;;;2.80;1.60;;;24.40;52.70;;;;;;4981348;28;20205;-59
2022/03/26 07:06:31;;;;;;;2.63;1.52;;;24.40;52.60;;;;;;4971759;28;20659;-61
2022/03/26 07:09:03;;;;;;;3.35;1.35;;;24.40;52.70;;;;;;4971506;28;20245;-60
2022/03/26 07:11:34;;;;;;;1.98;1.30;;;24.40;52.80;;;;;;4952143;29;20211;-54
2022/03/26 07:14:04;;;;;;;2.78;1.63;;;24.30;52.80;;;;;;4951869;28;20231;-54
2022/03/26 07:16:35;;;;;;;2.97;1.42;;;24.30;52.80;;;;;;4952002;28;20213;-55
2022/03/26 07:19:06;;;;;;;4.07;1.98;;;24.30;52.90;;;;;;4969000;28;20260;-61
2022/03/26 07:21:37;;;;;;;2.58;1.30;;;24.30;52.90;;;;;;4971377;28;20198;-59
2022/03/26 07:24:10;;;;;;;2.08;1.55;;;24.30;53.00;;;;;;4971224;28;20209;-56
2022/03/26 07:26:40;;;;;;;2.47;1.35;;;24.20;53.00;;;;;;4971359;28;20209;-56
2022/03/26 07:29:11;;;;;;;4.25;1.83;;;24.20;53.00;;;;;;4971269;28;20222;-57
2022/03/26 07:31:42;;;;;;;2.28;1.52;;;24.20;53.10;;;;;;4971061;28;20194;-60
2022/03/26 07:34:16;;;;;;;2.92;1.70;;;24.20;53.10;;;;;;4971212;28;20230;-53
2022/03/26 07:36:46;;;;;;;3.88;1.67;;;24.20;53.10;;;;;;4971044;28;20202;-56
2022/03/26 07:39:19;;;;;;;3.65;1.90;;;24.10;53.00;;;;;;4971303;28;20256;-59
2022/03/26 07:41:50;;;;;;;1.90;1.50;;;24.10;53.00;;;;;;4971048;28;20488;-56
2022/03/26 07:44:20;;;;;;;4.00;1.70;;;24.10;53.10;;;;;;4971000;28;20202;-58
2022/03/26 07:46:51;;;;;;;1.80;1.20;;;24.00;53.10;;;;;;4971277;28;20222;-58
2022/03/26 07:49:21;;;;;;;3.50;1.60;;;24.00;53.10;;;;;;4971123;28;20268;-54
2022/03/26 07:51:52;;;;;;;3.10;1.73;;;24.00;53.80;;;;;;4970947;28;20199;-58
2022/03/26 07:54:25;;;;;;;2.65;1.55;;;24.00;53.20;;;;;;4971964;28;20295;-59
2022/03/26 07:56:55;;;;;;;2.28;1.52;;;23.90;53.10;;;;;;4990557;28;20241;-56
2022/03/26 07:59:26;;;;;;;2.78;1.65;;;23.90;53.80;;;;;;4973733;28;20255;-58
2022/03/26 08:01:56;;;;;;;1.98;1.60;;;23.90;53.30;;;;;;4970713;28;20198;-61
2022/03/26 08:04:27;;;;;;;2.58;1.60;;;23.90;53.40;;;;;;4972713;28;20814;-61
2022/03/26 08:06:58;;;;;;;2.83;1.83;;;23.90;53.40;;;;;;4975039;28;20689;-62
2022/03/26 08:09:30;;;;;;;2.33;1.50;;;23.80;53.50;;;;;;4975070;28;20198;-56
2022/03/26 08:12:01;;;;;;;2.30;1.40;;;23.80;53.50;;;;;;4974865;28;20765;-55
2022/03/26 08:14:33;;;;;;;3.40;1.80;;;23.80;53.50;;;;;;4974754;28;20285;-57
2022/03/26 08:17:03;;;;;;;3.58;1.60;;;23.80;53.50;;;;;;4974685;28;20222;-61
2022/03/26 08:19:34;;;;;;;4.45;1.77;;;23.80;53.40;;;;;;4974630;28;20229;-60
2022/03/26 08:22:05;;;;;;;4.97;2.15;;;23.80;53.40;;;;;;4974836;28;20205;-59
2022/03/26 08:24:38;;;;;;;5.68;2.08;;;23.80;53.50;;;;;;4977031;28;20288;-61
2022/03/26 08:27:08;;;;;;;7.35;2.80;;;23.70;53.50;;;;;;4993675;28;20218;-58
2022/03/26 08:29:42;;;;;;;6.65;2.60;;;23.70;53.60;;;;;;4991069;28;20198;-54
2022/03/26 09:34:33;;;;;;;5.40;2.25;;;23.30;53.90;;;;;;5088456;23;20237;-64
2022/03/26 09:37:04;;;;;;;4.03;2.22;;;23.30;53.90;;;;;;4991445;28;20304;-65
2022/03/26 09:39:35;;;;;;;4.90;2.47;;;23.30;53.90;;;;;;4991230;28;20198;-61
2022/03/26 09:42:07;;;;;;;3.47;2.00;;;23.20;53.90;;;;;;4991383;28;20676;-61
2022/03/26 09:44:38;;;;;;;4.18;2.35;;;23.20;53.90;;;;;;4988125;28;20288;-61
2022/03/26 09:47:10;;;;;;;4.60;2.22;;;23.20;53.90;;;;;;4990638;28;20228;-65
2022/03/26 09:49:43;;;;;;;6.50;2.20;;;23.20;53.90;;;;;;4990551;28;20208;-66
2022/03/26 09:52:15;;;;;;;3.05;1.90;;;23.20;53.90;;;;;;4991389;28;20194;-66
2022/03/26 09:54:46;;;;;;;4.50;1.85;;;23.10;53.90;;;;;;4990158;28;20224;-66
2022/03/26 09:57:16;;;;;;;4.53;2.05;;;23.10;54.00;;;;;;4991300;28;20252;-66
2022/03/26 09:59:47;;;;;;;3.08;1.58;;;23.10;54.00;;;;;;4990680;28;20685;-65
2022/03/26 10:02:17;;;;;;;3.03;2.00;;;23.10;54.00;;;;;;4990700;28;20243;-65
2022/03/26 10:04:50;;;;;;;4.68;2.08;;;23.10;54.00;;;;;;4990614;28;20197;-66
2022/03/26 10:07:28;;;;;;;4.55;2.17;;;23.10;54.10;;;;;;4988665;28;20225;-60
2022/03/26 10:09:59;;;;;;;4.13;1.88;;;23.10;54.10;;;;;;4989716;28;20197;-65
2022/03/26 10:12:30;;;;;;;4.07;2.00;;;23.00;54.10;;;;;;4990876;28;20201;-64
2022/03/26 10:15:01;;;;;;;3.65;1.95;;;23.00;54.10;;;;;;4990785;28;20233;-63
2022/03/26 10:17:33;;;;;;;5.43;2.10;;;23.00;54.10;;;;;;4989978;28;20295;-65
2022/03/26 10:20:07;;;;;;;2.38;1.60;;;23.00;54.10;;;;;;4990970;28;20225;-65
2022/03/26 10:22:39;;;;;;;4.75;2.28;;;23.00;54.10;;;;;;4989995;28;20240;-65
2022/03/26 10:25:11;;;;;;;4.30;2.15;;;23.00;54.10;;;;;;4989551;28;20190;-65
2022/03/26 10:27:43;;;;;;;4.13;2.35;;;22.90;54.00;;;;;;4987999;28;20221;-62
2022/03/26 10:30:15;;;;;;;4.40;2.03;;;22.90;54.10;;;;;;4990179;28;20580;-66
2022/03/26 10:32:46;;;;;;;3.03;1.88;;;22.90;54.10;;;;;;5005528;23;20189;-56
2022/03/26 10:35:25;;;;;;;4.18;2.28;;;22.90;54.10;;;;;;5024596;28;20263;-56
2022/03/26 10:37:59;;;;;;;4.13;2.17;;;22.90;54.10;;;;;;5024147;28;20216;-57
2022/03/26 10:40:35;;;;;;;3.80;2.38;;;22.90;54.10;;;;;;5032086;28;20251;-57
2022/03/26 10:43:08;;;;;;;4.82;2.13;;;22.90;54.10;;;;;;5030890;28;20192;-57
2022/03/26 10:45:40;;;;;;;3.88;2.08;;;22.90;54.20;;;;;;5030950;28;20223;-57
2022/03/26 10:48:12;;;;;;;4.72;2.42;;;22.80;54.10;;;;;;5030799;28;20278;-57
2022/03/26 10:50:45;;;;;;;4.07;2.10;;;22.90;54.20;;;;;;5024634;28;20203;-57
2022/03/26 10:53:16;;;;;;;5.63;2.13;;;22.80;54.20;;;;;;5011077;28;20308;-57
2022/03/26 10:55:47;;;;;;;3.83;2.30;;;22.80;54.30;;;;;;5023558;28;20196;-55
2022/03/26 10:58:17;;;;;;;3.00;2.05;;;22.80;54.30;;;;;;5030620;28;20247;-54
2022/03/26 11:00:48;;;;;;;4.18;2.17;;;22.80;54.30;;;;;;5030731;28;20203;-56
2022/03/26 11:03:19;;;;;;;4.07;2.20;;;22.70;54.20;;;;;;5030474;28;20196;-57
2022/03/26 11:05:54;;;;;;;4.80;2.05;;;22.80;54.30;;;;;;5024213;28;20261;-57
2022/03/26 11:08:25;;;;;;;3.10;2.28;;;22.70;54.30;;;;;;5010847;28;20266;-57
2022/03/26 11:10:59;;;;;;;3.63;2.45;;;22.70;54.30;;;;;;5010829;28;20267;-57
2022/03/26 11:13:31;;;;;;;4.63;1.90;;;22.70;54.30;;;;;;5010305;28;20307;-57
2022/03/26 11:16:05;;;;;;;4.30;2.33;;;22.60;54.30;;;;;;5010843;28;20224;-56
2022/03/26 11:18:55;;;;;;;3.63;2.22;;;22.60;54.30;;;;;;5010607;28;20627;-56
2022/03/26 11:22:03;;;;;;;4.88;2.30;;;22.60;54.30;;;;;;5010172;28;20735;-57
2022/03/26 11:25:02;;;;;;;3.67;2.30;;;22.60;54.30;;;;;;5009596;28;20201;-57
2022/03/26 11:27:52;;;;;;;3.85;2.13;;;22.60;54.30;;;;;;5028347;28;20273;-57
2022/03/26 11:30:27;;;;;;;5.15;2.33;;;22.60;54.30;;;;;;5030061;28;20204;-57
2022/03/26 11:33:10;;;;;;;3.17;1.98;;;22.60;54.30;;;;;;5038938;23;21502;-68
2022/03/26 11:35:53;;;;;;;4.32;2.10;;;22.60;54.30;;;;;;5009912;28;20205;-69
2022/03/26 11:38:27;;;;;;;3.85;2.00;;;22.60;54.30;;;;;;5010590;28;20213;-69
2022/03/26 11:40:59;;;;;;;4.00;2.40;;;22.50;54.40;;;;;;5011152;28;20207;-68
2022/03/26 11:43:56;;;;;;;3.40;2.00;;;22.50;54.40;;;;;;5000403;28;20735;-68
2022/03/26 11:52:26;;;;;;;4.20;2.15;;;22.50;54.50;;;;;;5007475;28;20258;-69
2022/03/26 11:55:24;;;;;;;3.58;1.95;;;22.40;54.40;;;;;;5010024;28;20228;-69
2022/03/26 11:58:26;;;;;;;3.67;2.20;;;22.40;54.50;;;;;;5010334;28;20220;-69
2022/03/26 12:00:58;;;;;;;3.78;2.10;;;22.40;54.50;;;;;;5010295;28;20196;-69
2022/03/26 12:03:30;;;;;;;3.92;2.38;;;22.40;54.50;;;;;;5010115;28;20200;-68
2022/03/26 12:08:57;;;;;;;3.70;1.98;;;22.40;54.60;;;;;;4990006;28;20216;-67
2022/03/26 12:11:35;;;;;;;4.53;2.05;;;22.30;54.50;;;;;;4989719;28;20649;-68
2022/03/26 12:14:07;;;;;;;3.60;2.08;;;22.30;54.50;;;;;;4989366;28;20583;-65
2022/03/26 12:16:56;;;;;;;4.32;2.20;;;22.30;54.50;;;;;;4989786;28;20201;-68
2022/03/26 12:19:50;;;;;;;3.38;2.10;;;22.30;54.50;;;;;;4989589;28;20252;-68
2022/03/26 12:22:23;;;;;;;4.80;2.35;;;22.30;54.50;;;;;;4989929;28;20201;-68
2022/03/26 12:24:54;;;;;;;3.22;1.77;;;22.30;54.50;;;;;;4995310;28;20197;-67
2022/03/26 12:27:27;;;;;;;3.55;2.17;;;22.30;54.60;;;;;;5009817;28;20216;-68
2022/03/26 12:29:59;;;;;;;4.90;2.13;;;22.30;54.60;;;;;;5009689;28;20200;-65
2022/03/26 12:32:34;;;;;;;3.20;2.08;;;22.30;54.60;;;;;;5009926;28;20621;-68
2022/03/26 12:35:06;;;;;;;3.97;2.30;;;22.20;54.60;;;;;;5009349;28;20220;-67
2022/03/26 12:37:37;;;;;;;2.42;1.70;;;22.30;55.20;;;;;;4993165;28;20283;-69
2022/03/26 12:40:10;;;;;;;2.60;1.75;;;22.20;54.60;;;;;;4989979;28;20254;-69
2022/03/26 12:42:45;;;;;;;2.08;1.70;;;22.20;54.70;;;;;;4990391;28;20198;-68
2022/03/26 12:45:20;;;;;;;3.10;2.13;;;22.20;54.70;;;;;;4990535;28;20201;-69
2022/03/26 12:47:51;;;;;;;2.63;2.00;;;22.20;54.70;;;;;;4989907;28;20272;-69
2022/03/26 12:50:23;;;;;;;3.22;1.95;;;22.20;54.70;;;;;;4990244;28;20197;-68
2022/03/26 12:52:54;;;;;;;2.85;2.10;;;22.20;54.70;;;;;;4993321;28;20201;-67
2022/03/26 12:55:25;;;;;;;2.90;2.00;;;22.10;54.60;;;;;;5002693;28;20326;-67
2022/03/26 13:00:43;;;;;;;2.47;1.80;;;22.20;54.70;;;;;;5012990;28;20711;-63
2022/03/26 13:03:16;;;;;;;3.78;1.95;;;22.20;54.70;;;;;;5012966;28;20197;-68
2022/03/26 13:05:46;;;;;;;3.17;1.70;;;22.10;54.70;;;;;;5013500;28;20229;-65
2022/03/26 13:08:17;;;;;;;4.97;2.50;;;22.10;54.80;;;;;;4974242;28;20297;-68
2022/03/26 13:10:48;;;;;;;2.92;1.80;;;22.10;54.70;;;;;;4987603;28;20688;-65
2022/03/26 13:13:21;;;;;;;2.65;2.00;;;22.10;54.70;;;;;;4993469;28;20198;-69
2022/03/26 13:16:07;;;;;;;3.90;1.88;;;22.10;54.80;;;;;;4993148;28;20260;-68
2022/03/26 13:18:44;;;;;;;2.88;1.90;;;22.10;54.80;;;;;;4991892;28;20701;-68
2022/03/26 13:21:16;;;;;;;3.47;2.00;;;22.10;54.80;;;;;;4992929;28;20661;-68
2022/03/26 13:23:58;;;;;;;3.03;1.48;;;22.10;54.80;;;;;;4993186;28;20248;-65
2022/03/26 13:26:46;;;;;;;3.53;2.13;;;22.00;54.80;;;;;;5011223;28;20537;-67
2022/03/26 13:29:19;;;;;;;3.90;2.08;;;22.00;54.80;;;;;;4997505;28;20193;-68
2022/03/26 13:31:52;;;;;;;2.92;2.10;;;22.00;54.80;;;;;;4993039;28;20229;-68
2022/03/26 14:33:58;;;;;;;2.67;1.77;;;21.80;55.00;;;;;;5517672;23;20251;-68
2022/03/26 14:36:29;;;;;;;2.63;1.75;;;21.70;55.00;;;;;;5013945;28;20262;-68
2022/03/26 14:38:59;;;;;;;2.75;1.65;;;21.70;55.00;;;;;;4991103;28;20237;-66
2022/03/26 14:41:30;;;;;;;2.17;1.65;;;21.70;55.00;;;;;;4991530;28;20198;-68
2022/03/26 14:44:01;;;;;;;3.63;1.95;;;21.70;55.00;;;;;;4991624;28;20727;-64
2022/03/26 14:46:31;;;;;;;1.73;1.30;;;21.70;55.00;;;;;;4988376;28;20194;-65
2022/03/26 14:49:03;;;;;;;2.13;1.48;;;21.70;55.00;;;;;;4982657;28;20232;-62
2022/03/26 14:51:34;;;;;;;2.33;1.60;;;21.70;55.00;;;;;;4991597;28;20264;-61
2022/03/26 14:54:06;;;;;;;3.10;1.80;;;21.70;55.00;;;;;;4991006;28;20658;-67
2022/03/26 14:56:36;;;;;;;2.95;1.85;;;21.70;55.00;;;;;;4991012;28;20201;-67
2022/03/26 14:59:07;;;;;;;1.80;1.35;;;21.70;55.00;;;;;;4991576;28;20241;-61
2022/03/26 15:01:38;;;;;;;2.03;1.50;;;21.70;55.10;;;;;;4991205;28;20194;-68
2022/03/26 15:04:10;;;;;;;2.67;1.67;;;21.60;55.10;;;;;;4990929;28;20918;-68
2022/03/26 15:06:41;;;;;;;2.03;1.80;;;21.70;55.10;;;;;;4991128;28;20201;-68
2022/03/26 15:09:11;;;;;;;2.65;1.45;;;21.60;55.10;;;;;;4991093;28;20256;-66
2022/03/26 15:11:42;;;;;;;1.50;1.40;;;21.60;55.10;;;;;;4990936;28;20290;-67
2022/03/26 15:14:12;;;;;;;3.90;1.70;;;21.60;55.10;;;;;;4990089;28;20205;-66
2022/03/26 15:16:43;;;;;;;1.77;1.50;;;21.60;55.10;;;;;;4991011;28;20558;-68
2022/03/26 15:19:16;;;;;;;2.30;1.70;;;21.60;55.10;;;;;;4990966;28;20589;-68
2022/03/26 15:21:47;;;;;;;3.38;1.33;;;21.60;55.10;;;;;;4991163;28;20722;-69
2022/03/26 15:24:17;;;;;;;2.83;1.80;;;21.60;55.20;;;;;;4991174;28;20225;-69
2022/03/26 15:26:48;;;;;;;2.55;1.58;;;21.60;55.20;;;;;;4991161;28;20216;-68
2022/03/26 15:29:18;;;;;;;2.40;1.63;;;21.50;55.10;;;;;;4991152;28;20252;-68
2022/03/26 15:31:51;;;;;;;2.97;1.80;;;21.50;55.10;;;;;;4990787;28;20672;-67
2022/03/26 15:34:24;;;;;;;2.13;1.50;;;21.50;55.10;;;;;;5011059;23;20224;-60
2022/03/26 15:36:54;;;;;;;2.70;1.48;;;21.50;55.10;;;;;;4971246;28;20226;-61
2022/03/26 15:39:25;;;;;;;1.88;1.48;;;21.50;55.10;;;;;;4971342;28;20257;-61
2022/03/26 15:41:55;;;;;;;2.00;1.73;;;21.50;55.10;;;;;;4980153;28;20236;-61
2022/03/26 15:44:26;;;;;;;2.47;1.60;;;21.50;55.10;;;;;;4990799;28;20661;-61
2022/03/26 15:46:57;;;;;;;2.10;1.50;;;21.50;55.20;;;;;;4990758;28;20221;-61
2022/03/26 15:49:32;;;;;;;2.53;1.70;;;21.50;55.20;;;;;;4999365;28;20225;-61
2022/03/26 15:52:04;;;;;;;1.92;1.50;;;21.50;55.20;;;;;;5010467;28;20224;-60
2022/03/26 15:54:35;;;;;;;2.00;1.55;;;21.50;55.20;;;;;;5009966;28;20256;-61
2022/03/26 15:57:06;;;;;;;2.38;1.60;;;21.50;55.20;;;;;;5009677;28;20213;-60
2022/03/26 15:59:37;;;;;;;2.33;1.50;;;21.40;55.20;;;;;;5009645;28;20298;-60
2022/03/26 16:02:07;;;;;;;2.42;1.73;;;21.40;55.20;;;;;;5010002;28;20564;-60